sensor_id;sensor_type;location;lat;lon;timestamp;temperature;humidity
19803;DHT22;66074;50.764;6.090;2023-02-01T00:01:44;6.70;99.90
19803;DHT22;66074;50.764;6.090;2023-02-01T00:04:10;6.70;99.90
19803;DHT22;66074;50.764;6.090;2023-02-01T00:06:35;6.80;99.90
19803;DHT22;66074;50.764;6.090;2023-02-01T00:09:01;6.80;99.90
19803;DHT22;66074;50.764;6.090;2023-02-01T00:11:26;6.80;99.90
19803;DHT22;66074;50.764;6.090;2023-02-01T00:13:52;6.90;99.90
19803;DHT22;66074;50.764;6.090;2023-02-01T00:16:27;6.90;99.90
19803;DHT22;66074;50.764;6.090;2023-02-01T00:19:04;6.90;99.90
19803;DHT22;66074;50.764;6.090;2023-02-01T00:21:30;6.90;99.90
19803;DHT22;66074;50.764;6.090;2023-02-01T00:23:56;7.00;99.90
19803;DHT22;66074;50.764;6.090;2023-02-01T00:26:44;7.00;99.90
19803;DHT22;66074;50.764;6.090;2023-02-01T00:29:13;7.00;99.90
19803;DHT22;66074;50.764;6.090;2023-02-01T00:31:39;7.00;99.90
19803;DHT22;66074;50.764;6.090;2023-02-01T00:34:06;7.00;99.90
19803;DHT22;66074;50.764;6.090;2023-02-01T00:36:31;7.00;99.90
19803;DHT22;66074;50.764;6.090;2023-02-01T00:38:57;7.00;99.90
19803;DHT22;66074;50.764;6.090;2023-02-01T00:41:23;7.00;99.90
19803;DHT22;66074;50.764;6.090;2023-02-01T00:43:50;7.10;99.90
19803;DHT22;66074;50.764;6.090;2023-02-01T00:46:17;7.10;99.90
19803;DHT22;66074;50.764;6.090;2023-02-01T00:48:44;7.10;99.90
19803;DHT22;66074;50.764;6.090;2023-02-01T00:51:15;7.10;99.90
19803;DHT22;66074;50.764;6.090;2023-02-01T00:53:41;7.10;99.90
19803;DHT22;66074;50.764;6.090;2023-02-01T00:56:08;7.10;99.90
19803;DHT22;66074;50.764;6.090;2023-02-01T00:58:34;7.10;99.90
19803;DHT22;66074;50.764;6.090;2023-02-01T01:03:33;7.10;99.90
19803;DHT22;66074;50.764;6.090;2023-02-01T01:06:00;7.20;99.90
19803;DHT22;66074;50.764;6.090;2023-02-01T01:08:26;7.20;99.90
19803;DHT22;66074;50.764;6.090;2023-02-01T01:10:52;7.10;99.90
19803;DHT22;66074;50.764;6.090;2023-02-01T01:13:18;7.20;99.90
19803;DHT22;66074;50.764;6.090;2023-02-01T01:15:43;7.20;99.90
19803;DHT22;66074;50.764;6.090;2023-02-01T01:18:09;7.20;99.90
19803;DHT22;66074;50.764;6.090;2023-02-01T01:20:37;7.10;99.90
19803;DHT22;66074;50.764;6.090;2023-02-01T01:23:04;7.20;99.90
19803;DHT22;66074;50.764;6.090;2023-02-01T01:25:30;7.20;99.90
19803;DHT22;66074;50.764;6.090;2023-02-01T01:27:56;7.20;99.90
19803;DHT22;66074;50.764;6.090;2023-02-01T01:30:22;7.10;99.90
19803;DHT22;66074;50.764;6.090;2023-02-01T01:32:47;7.20;99.90
19803;DHT22;66074;50.764;6.090;2023-02-01T01:35:13;7.10;99.90
19803;DHT22;66074;50.764;6.090;2023-02-01T01:37:39;7.10;99.90
19803;DHT22;66074;50.764;6.090;2023-02-01T01:40:07;7.10;99.90
19803;DHT22;66074;50.764;6.090;2023-02-01T01:42:40;7.10;99.90
19803;DHT22;66074;50.764;6.090;2023-02-01T01:50:27;7.20;99.90
19803;DHT22;66074;50.764;6.090;2023-02-01T01:52:55;7.20;99.90
19803;DHT22;66074;50.764;6.090;2023-02-01T01:55:22;7.20;99.90
19803;DHT22;66074;50.764;6.090;2023-02-01T01:58:12;7.10;99.90
19803;DHT22;66074;50.764;6.090;2023-02-01T02:00:39;7.20;99.90
19803;DHT22;66074;50.764;6.090;2023-02-01T02:03:18;7.10;99.90
19803;DHT22;66074;50.764;6.090;2023-02-01T02:05:46;7.10;99.90
19803;DHT22;66074;50.764;6.090;2023-02-01T02:08:12;7.10;99.90
19803;DHT22;66074;50.764;6.090;2023-02-01T02:10:38;7.10;99.90
19803;DHT22;66074;50.764;6.090;2023-02-01T02:13:23;7.10;99.90
19803;DHT22;66074;50.764;6.090;2023-02-01T02:16:16;7.10;99.90
19803;DHT22;66074;50.764;6.090;2023-02-01T02:18:59;7.10;99.90
19803;DHT22;66074;50.764;6.090;2023-02-01T02:25:14;7.10;99.90
19803;DHT22;66074;50.764;6.090;2023-02-01T02:30:36;7.00;99.90
19803;DHT22;66074;50.764;6.090;2023-02-01T02:36:21;7.10;99.90
19803;DHT22;66074;50.764;6.090;2023-02-01T02:39:04;7.10;99.90
19803;DHT22;66074;50.764;6.090;2023-02-01T02:44:59;7.10;99.90
19803;DHT22;66074;50.764;6.090;2023-02-01T02:48:17;7.10;99.90
19803;DHT22;66074;50.764;6.090;2023-02-01T02:50:53;7.10;99.90
19803;DHT22;66074;50.764;6.090;2023-02-01T02:53:48;7.10;99.90
19803;DHT22;66074;50.764;6.090;2023-02-01T02:56:32;7.10;99.90
19803;DHT22;66074;50.764;6.090;2023-02-01T02:59:21;7.10;99.90
19803;DHT22;66074;50.764;6.090;2023-02-01T03:02:08;7.10;99.90
19803;DHT22;66074;50.764;6.090;2023-02-01T03:04:53;7.10;99.90
19803;DHT22;66074;50.764;6.090;2023-02-01T03:10:24;7.20;99.90
19803;DHT22;66074;50.764;6.090;2023-02-01T03:12:52;7.10;99.90
19803;DHT22;66074;50.764;6.090;2023-02-01T03:15:33;7.10;99.90
19803;DHT22;66074;50.764;6.090;2023-02-01T03:18:01;7.10;99.90
19803;DHT22;66074;50.764;6.090;2023-02-01T03:20:29;7.10;99.90
19803;DHT22;66074;50.764;6.090;2023-02-01T03:22:55;7.10;99.90
19803;DHT22;66074;50.764;6.090;2023-02-01T03:25:29;7.10;99.90
19803;DHT22;66074;50.764;6.090;2023-02-01T03:28:06;7.10;99.90
19803;DHT22;66074;50.764;6.090;2023-02-01T03:30:37;7.10;99.90
19803;DHT22;66074;50.764;6.090;2023-02-01T03:33:07;7.10;99.90
19803;DHT22;66074;50.764;6.090;2023-02-01T03:41:27;7.10;99.90
19803;DHT22;66074;50.764;6.090;2023-02-01T03:44:13;7.00;99.90
19803;DHT22;66074;50.764;6.090;2023-02-01T03:49:41;6.90;99.90
19803;DHT22;66074;50.764;6.090;2023-02-01T03:52:13;6.90;99.90
19803;DHT22;66074;50.764;6.090;2023-02-01T03:54:40;6.80;99.90
19803;DHT22;66074;50.764;6.090;2023-02-01T03:57:11;6.80;99.90
19803;DHT22;66074;50.764;6.090;2023-02-01T03:59:39;6.80;99.90
19803;DHT22;66074;50.764;6.090;2023-02-01T04:02:06;6.70;99.90
19803;DHT22;66074;50.764;6.090;2023-02-01T04:04:32;6.70;99.90
19803;DHT22;66074;50.764;6.090;2023-02-01T04:06:59;6.60;99.90
19803;DHT22;66074;50.764;6.090;2023-02-01T04:09:24;6.60;99.90
19803;DHT22;66074;50.764;6.090;2023-02-01T04:11:50;6.50;99.90
19803;DHT22;66074;50.764;6.090;2023-02-01T04:14:15;6.40;99.90
19803;DHT22;66074;50.764;6.090;2023-02-01T04:16:41;6.50;99.90
19803;DHT22;66074;50.764;6.090;2023-02-01T04:19:07;6.40;99.90
19803;DHT22;66074;50.764;6.090;2023-02-01T04:21:32;6.40;99.90
19803;DHT22;66074;50.764;6.090;2023-02-01T04:23:58;6.30;99.90
19803;DHT22;66074;50.764;6.090;2023-02-01T04:26:24;6.30;99.90
19803;DHT22;66074;50.764;6.090;2023-02-01T04:28:50;6.20;99.90
19803;DHT22;66074;50.764;6.090;2023-02-01T04:31:17;6.20;99.90
19803;DHT22;66074;50.764;6.090;2023-02-01T04:33:43;6.20;99.90
19803;DHT22;66074;50.764;6.090;2023-02-01T04:36:09;6.20;99.90
19803;DHT22;66074;50.764;6.090;2023-02-01T04:38:35;6.10;99.90
19803;DHT22;66074;50.764;6.090;2023-02-01T04:41:01;6.10;99.90
19803;DHT22;66074;50.764;6.090;2023-02-01T04:43:27;6.10;99.90
19803;DHT22;66074;50.764;6.090;2023-02-01T04:45:53;6.10;99.90
19803;DHT22;66074;50.764;6.090;2023-02-01T04:48:20;6.10;99.90
19803;DHT22;66074;50.764;6.090;2023-02-01T04:50:46;6.00;99.90
19803;DHT22;66074;50.764;6.090;2023-02-01T04:53:16;6.10;99.90
19803;DHT22;66074;50.764;6.090;2023-02-01T04:55:42;6.20;99.90
19803;DHT22;66074;50.764;6.090;2023-02-01T04:58:08;6.20;99.90
19803;DHT22;66074;50.764;6.090;2023-02-01T05:00:34;6.30;99.90
19803;DHT22;66074;50.764;6.090;2023-02-01T05:03:00;6.20;99.90
19803;DHT22;66074;50.764;6.090;2023-02-01T05:05:27;6.20;99.90
19803;DHT22;66074;50.764;6.090;2023-02-01T05:07:52;6.20;99.90
19803;DHT22;66074;50.764;6.090;2023-02-01T05:10:18;6.20;99.90
19803;DHT22;66074;50.764;6.090;2023-02-01T05:12:44;6.20;99.90
19803;DHT22;66074;50.764;6.090;2023-02-01T05:15:29;6.10;99.90
19803;DHT22;66074;50.764;6.090;2023-02-01T05:17:55;6.00;99.90
19803;DHT22;66074;50.764;6.090;2023-02-01T05:20:21;6.00;99.90
19803;DHT22;66074;50.764;6.090;2023-02-01T05:22:46;6.00;99.90
19803;DHT22;66074;50.764;6.090;2023-02-01T05:25:12;6.00;99.90
19803;DHT22;66074;50.764;6.090;2023-02-01T05:27:38;6.00;99.90
19803;DHT22;66074;50.764;6.090;2023-02-01T05:30:05;5.90;99.90
19803;DHT22;66074;50.764;6.090;2023-02-01T05:32:30;5.90;99.90
19803;DHT22;66074;50.764;6.090;2023-02-01T05:34:56;5.90;99.90
19803;DHT22;66074;50.764;6.090;2023-02-01T05:37:22;5.80;99.90
19803;DHT22;66074;50.764;6.090;2023-02-01T05:39:47;5.80;99.90
19803;DHT22;66074;50.764;6.090;2023-02-01T05:42:13;5.80;99.90
19803;DHT22;66074;50.764;6.090;2023-02-01T05:44:39;5.80;99.90
19803;DHT22;66074;50.764;6.090;2023-02-01T05:47:04;5.70;99.90
19803;DHT22;66074;50.764;6.090;2023-02-01T05:49:30;5.70;99.90
19803;DHT22;66074;50.764;6.090;2023-02-01T05:51:55;5.70;99.90
19803;DHT22;66074;50.764;6.090;2023-02-01T05:54:21;5.70;99.90
19803;DHT22;66074;50.764;6.090;2023-02-01T05:56:47;5.70;99.90
19803;DHT22;66074;50.764;6.090;2023-02-01T05:59:12;5.70;99.90
19803;DHT22;66074;50.764;6.090;2023-02-01T06:01:38;5.70;99.90
19803;DHT22;66074;50.764;6.090;2023-02-01T06:04:04;5.70;99.90
19803;DHT22;66074;50.764;6.090;2023-02-01T06:06:29;5.70;99.90
19803;DHT22;66074;50.764;6.090;2023-02-01T06:08:55;5.60;99.90
19803;DHT22;66074;50.764;6.090;2023-02-01T06:11:20;5.60;99.90
19803;DHT22;66074;50.764;6.090;2023-02-01T06:13:46;5.60;99.90
19803;DHT22;66074;50.764;6.090;2023-02-01T06:16:12;5.60;99.90
19803;DHT22;66074;50.764;6.090;2023-02-01T06:18:40;5.60;99.90
19803;DHT22;66074;50.764;6.090;2023-02-01T06:21:07;5.60;99.90
19803;DHT22;66074;50.764;6.090;2023-02-01T06:23:34;5.60;99.90
19803;DHT22;66074;50.764;6.090;2023-02-01T06:26:06;5.50;99.90
19803;DHT22;66074;50.764;6.090;2023-02-01T06:28:35;5.50;99.90
19803;DHT22;66074;50.764;6.090;2023-02-01T06:31:07;5.60;99.90
19803;DHT22;66074;50.764;6.090;2023-02-01T06:33:34;5.50;99.90
19803;DHT22;66074;50.764;6.090;2023-02-01T06:36:00;5.50;99.90
19803;DHT22;66074;50.764;6.090;2023-02-01T06:38:27;5.50;99.90
19803;DHT22;66074;50.764;6.090;2023-02-01T06:40:54;5.50;99.90
19803;DHT22;66074;50.764;6.090;2023-02-01T06:43:21;5.50;99.90
19803;DHT22;66074;50.764;6.090;2023-02-01T06:45:47;5.50;99.90
19803;DHT22;66074;50.764;6.090;2023-02-01T06:48:13;5.40;99.90
19803;DHT22;66074;50.764;6.090;2023-02-01T06:50:38;5.10;99.90
19803;DHT22;66074;50.764;6.090;2023-02-01T06:53:04;5.40;99.90
19803;DHT22;66074;50.764;6.090;2023-02-01T06:55:29;5.40;99.90
19803;DHT22;66074;50.764;6.090;2023-02-01T06:57:55;5.40;99.90
19803;DHT22;66074;50.764;6.090;2023-02-01T07:00:24;5.40;99.90
19803;DHT22;66074;50.764;6.090;2023-02-01T07:02:50;5.40;99.90
19803;DHT22;66074;50.764;6.090;2023-02-01T07:05:16;5.40;99.90
19803;DHT22;66074;50.764;6.090;2023-02-01T07:07:42;5.40;99.90
19803;DHT22;66074;50.764;6.090;2023-02-01T07:10:08;5.40;99.90
19803;DHT22;66074;50.764;6.090;2023-02-01T07:12:34;5.40;99.90
19803;DHT22;66074;50.764;6.090;2023-02-01T07:15:00;5.40;99.90
19803;DHT22;66074;50.764;6.090;2023-02-01T07:17:28;5.50;99.90
19803;DHT22;66074;50.764;6.090;2023-02-01T07:19:57;5.40;99.90
19803;DHT22;66074;50.764;6.090;2023-02-01T07:22:25;5.50;99.90
19803;DHT22;66074;50.764;6.090;2023-02-01T07:24:51;5.50;99.90
19803;DHT22;66074;50.764;6.090;2023-02-01T07:27:16;5.50;99.90
19803;DHT22;66074;50.764;6.090;2023-02-01T07:29:42;5.60;99.90
19803;DHT22;66074;50.764;6.090;2023-02-01T07:32:07;5.60;99.90
19803;DHT22;66074;50.764;6.090;2023-02-01T07:34:33;5.70;99.90
19803;DHT22;66074;50.764;6.090;2023-02-01T07:37:00;5.70;99.90
19803;DHT22;66074;50.764;6.090;2023-02-01T07:39:25;5.70;99.90
19803;DHT22;66074;50.764;6.090;2023-02-01T07:41:53;5.70;99.90
19803;DHT22;66074;50.764;6.090;2023-02-01T07:44:19;5.60;99.90
19803;DHT22;66074;50.764;6.090;2023-02-01T07:46:48;5.60;99.90
19803;DHT22;66074;50.764;6.090;2023-02-01T07:49:14;5.60;99.90
19803;DHT22;66074;50.764;6.090;2023-02-01T07:51:39;5.60;99.90
19803;DHT22;66074;50.764;6.090;2023-02-01T07:54:05;5.70;99.90
19803;DHT22;66074;50.764;6.090;2023-02-01T07:56:30;5.70;99.90
19803;DHT22;66074;50.764;6.090;2023-02-01T07:58:56;5.60;99.90
19803;DHT22;66074;50.764;6.090;2023-02-01T08:01:24;5.60;99.90
19803;DHT22;66074;50.764;6.090;2023-02-01T08:03:52;5.60;99.90
19803;DHT22;66074;50.764;6.090;2023-02-01T08:06:19;5.60;99.90
19803;DHT22;66074;50.764;6.090;2023-02-01T08:08:46;5.60;99.90
19803;DHT22;66074;50.764;6.090;2023-02-01T08:11:12;5.60;99.90
19803;DHT22;66074;50.764;6.090;2023-02-01T08:13:39;5.50;99.90
19803;DHT22;66074;50.764;6.090;2023-02-01T08:16:07;5.60;99.90
19803;DHT22;66074;50.764;6.090;2023-02-01T08:18:34;5.70;99.90
19803;DHT22;66074;50.764;6.090;2023-02-01T08:21:11;5.70;99.90
19803;DHT22;66074;50.764;6.090;2023-02-01T08:23:38;5.80;99.90
19803;DHT22;66074;50.764;6.090;2023-02-01T08:28:45;6.00;99.90
19803;DHT22;66074;50.764;6.090;2023-02-01T08:31:14;6.00;99.90
19803;DHT22;66074;50.764;6.090;2023-02-01T08:33:40;6.10;99.90
19803;DHT22;66074;50.764;6.090;2023-02-01T08:36:08;6.10;99.90
19803;DHT22;66074;50.764;6.090;2023-02-01T08:38:38;6.10;99.90
19803;DHT22;66074;50.764;6.090;2023-02-01T08:41:09;6.10;99.90
19803;DHT22;66074;50.764;6.090;2023-02-01T08:43:35;6.20;99.90
19803;DHT22;66074;50.764;6.090;2023-02-01T08:46:02;6.20;99.90
19803;DHT22;66074;50.764;6.090;2023-02-01T08:48:28;6.20;99.90
19803;DHT22;66074;50.764;6.090;2023-02-01T08:50:53;6.20;99.90
19803;DHT22;66074;50.764;6.090;2023-02-01T08:53:19;6.20;99.90
19803;DHT22;66074;50.764;6.090;2023-02-01T08:55:46;6.20;99.90
19803;DHT22;66074;50.764;6.090;2023-02-01T08:58:12;6.20;99.90
19803;DHT22;66074;50.764;6.090;2023-02-01T09:00:40;6.20;99.90
19803;DHT22;66074;50.764;6.090;2023-02-01T09:03:07;6.30;99.90
19803;DHT22;66074;50.764;6.090;2023-02-01T09:05:34;6.30;99.90
19803;DHT22;66074;50.764;6.090;2023-02-01T09:08:00;6.40;99.90
19803;DHT22;66074;50.764;6.090;2023-02-01T09:10:25;6.40;99.90
19803;DHT22;66074;50.764;6.090;2023-02-01T09:12:51;6.50;99.90
19803;DHT22;66074;50.764;6.090;2023-02-01T09:15:17;6.50;99.90
19803;DHT22;66074;50.764;6.090;2023-02-01T09:17:42;6.60;99.90
19803;DHT22;66074;50.764;6.090;2023-02-01T09:20:09;6.70;99.90
19803;DHT22;66074;50.764;6.090;2023-02-01T09:22:35;6.70;99.90
19803;DHT22;66074;50.764;6.090;2023-02-01T09:25:00;6.80;99.90
19803;DHT22;66074;50.764;6.090;2023-02-01T09:27:26;6.80;99.90
19803;DHT22;66074;50.764;6.090;2023-02-01T09:29:51;6.90;99.90
19803;DHT22;66074;50.764;6.090;2023-02-01T09:32:21;6.80;99.90
19803;DHT22;66074;50.764;6.090;2023-02-01T09:34:48;6.90;99.90
19803;DHT22;66074;50.764;6.090;2023-02-01T09:37:14;6.90;99.90
19803;DHT22;66074;50.764;6.090;2023-02-01T09:39:40;7.00;99.90
19803;DHT22;66074;50.764;6.090;2023-02-01T09:45:01;7.00;99.90
19803;DHT22;66074;50.764;6.090;2023-02-01T09:47:29;7.00;99.90
19803;DHT22;66074;50.764;6.090;2023-02-01T09:49:56;7.00;99.90
19803;DHT22;66074;50.764;6.090;2023-02-01T09:52:30;7.00;99.90
19803;DHT22;66074;50.764;6.090;2023-02-01T09:55:01;7.10;99.90
19803;DHT22;66074;50.764;6.090;2023-02-01T09:57:51;7.10;99.90
19803;DHT22;66074;50.764;6.090;2023-02-01T10:00:25;7.00;99.90
19803;DHT22;66074;50.764;6.090;2023-02-01T10:02:54;7.00;99.90
19803;DHT22;66074;50.764;6.090;2023-02-01T10:13:21;6.90;99.90
19803;DHT22;66074;50.764;6.090;2023-02-01T10:16:17;6.90;99.90
19803;DHT22;66074;50.764;6.090;2023-02-01T10:21:56;6.90;99.90
19803;DHT22;66074;50.764;6.090;2023-02-01T10:24:45;6.90;99.90
19803;DHT22;66074;50.764;6.090;2023-02-01T10:29:41;7.00;99.90
19803;DHT22;66074;50.764;6.090;2023-02-01T10:32:16;7.00;99.90
19803;DHT22;66074;50.764;6.090;2023-02-01T10:34:44;6.90;99.90
19803;DHT22;66074;50.764;6.090;2023-02-01T10:37:24;6.90;99.90
19803;DHT22;66074;50.764;6.090;2023-02-01T10:39:56;6.90;99.90
19803;DHT22;66074;50.764;6.090;2023-02-01T10:42:27;7.00;99.90
19803;DHT22;66074;50.764;6.090;2023-02-01T10:44:56;7.10;99.90
19803;DHT22;66074;50.764;6.090;2023-02-01T10:47:24;7.10;99.90
19803;DHT22;66074;50.764;6.090;2023-02-01T10:49:52;7.20;99.90
19803;DHT22;66074;50.764;6.090;2023-02-01T10:54:55;7.30;99.90
19803;DHT22;66074;50.764;6.090;2023-02-01T10:57:25;7.40;99.90
19803;DHT22;66074;50.764;6.090;2023-02-01T10:59:54;7.50;99.90
19803;DHT22;66074;50.764;6.090;2023-02-01T11:02:33;7.40;99.90
19803;DHT22;66074;50.764;6.090;2023-02-01T11:05:02;7.40;99.90
19803;DHT22;66074;50.764;6.090;2023-02-01T11:07:28;7.40;99.90
19803;DHT22;66074;50.764;6.090;2023-02-01T11:09:55;7.50;99.90
19803;DHT22;66074;50.764;6.090;2023-02-01T11:12:33;7.50;99.90
19803;DHT22;66074;50.764;6.090;2023-02-01T11:17:40;7.50;99.90
19803;DHT22;66074;50.764;6.090;2023-02-01T11:22:56;7.60;99.90
19803;DHT22;66074;50.764;6.090;2023-02-01T11:25:23;7.60;99.90
19803;DHT22;66074;50.764;6.090;2023-02-01T11:27:50;7.60;99.90
19803;DHT22;66074;50.764;6.090;2023-02-01T11:30:22;7.70;99.90
19803;DHT22;66074;50.764;6.090;2023-02-01T11:32:50;7.70;99.90
19803;DHT22;66074;50.764;6.090;2023-02-01T11:35:19;7.70;99.90
19803;DHT22;66074;50.764;6.090;2023-02-01T11:37:52;7.70;99.90
19803;DHT22;66074;50.764;6.090;2023-02-01T11:43:15;7.80;99.90
19803;DHT22;66074;50.764;6.090;2023-02-01T11:45:57;7.90;99.90
19803;DHT22;66074;50.764;6.090;2023-02-01T11:48:25;8.10;99.90
19803;DHT22;66074;50.764;6.090;2023-02-01T11:59:41;8.50;99.90
19803;DHT22;66074;50.764;6.090;2023-02-01T12:10:20;8.40;99.90
19803;DHT22;66074;50.764;6.090;2023-02-01T12:12:56;8.30;99.90
19803;DHT22;66074;50.764;6.090;2023-02-01T12:15:53;8.40;99.90
19803;DHT22;66074;50.764;6.090;2023-02-01T12:24:36;8.40;99.90
19803;DHT22;66074;50.764;6.090;2023-02-01T12:38:03;8.20;99.90
19803;DHT22;66074;50.764;6.090;2023-02-01T12:43:36;8.30;99.90
19803;DHT22;66074;50.764;6.090;2023-02-01T12:46:16;8.30;99.70
19803;DHT22;66074;50.764;6.090;2023-02-01T12:49:01;8.30;99.90
19803;DHT22;66074;50.764;6.090;2023-02-01T12:51:36;8.20;99.30
19803;DHT22;66074;50.764;6.090;2023-02-01T12:56:51;8.20;99.90
19803;DHT22;66074;50.764;6.090;2023-02-01T12:59:42;8.30;99.90
19803;DHT22;66074;50.764;6.090;2023-02-01T13:02:27;8.20;99.90
19803;DHT22;66074;50.764;6.090;2023-02-01T13:10:41;8.20;99.80
19803;DHT22;66074;50.764;6.090;2023-02-01T13:15:57;8.10;99.90
19803;DHT22;66074;50.764;6.090;2023-02-01T13:18:26;8.10;99.90
19803;DHT22;66074;50.764;6.090;2023-02-01T13:23:41;8.10;99.70
19803;DHT22;66074;50.764;6.090;2023-02-01T13:26:08;8.10;99.90
19803;DHT22;66074;50.764;6.090;2023-02-01T13:32:03;8.10;99.80
19803;DHT22;66074;50.764;6.090;2023-02-01T13:34:41;8.10;99.60
19803;DHT22;66074;50.764;6.090;2023-02-01T13:39:58;8.10;99.90
19803;DHT22;66074;50.764;6.090;2023-02-01T13:42:28;8.10;99.80
19803;DHT22;66074;50.764;6.090;2023-02-01T13:45:03;8.20;99.90
19803;DHT22;66074;50.764;6.090;2023-02-01T13:47:51;8.20;99.80
19803;DHT22;66074;50.764;6.090;2023-02-01T13:52:58;8.20;99.70
19803;DHT22;66074;50.764;6.090;2023-02-01T13:55:33;8.10;99.70
19803;DHT22;66074;50.764;6.090;2023-02-01T13:58:51;8.10;99.50
19803;DHT22;66074;50.764;6.090;2023-02-01T14:11:53;8.30;98.90
19803;DHT22;66074;50.764;6.090;2023-02-01T14:19:36;8.30;97.90
19803;DHT22;66074;50.764;6.090;2023-02-01T14:24:41;8.30;98.90
19803;DHT22;66074;50.764;6.090;2023-02-01T14:29:42;8.30;98.80
19803;DHT22;66074;50.764;6.090;2023-02-01T14:32:22;8.40;98.80
19803;DHT22;66074;50.764;6.090;2023-02-01T14:34:53;8.40;98.70
19803;DHT22;66074;50.764;6.090;2023-02-01T14:40:16;8.40;98.60
19803;DHT22;66074;50.764;6.090;2023-02-01T14:42:52;8.50;98.20
19803;DHT22;66074;50.764;6.090;2023-02-01T14:47:45;8.50;98.80
19803;DHT22;66074;50.764;6.090;2023-02-01T14:52:40;8.70;98.40
19803;DHT22;66074;50.764;6.090;2023-02-01T14:56:17;8.50;98.20
19803;DHT22;66074;50.764;6.090;2023-02-01T15:08:48;8.70;97.50
19803;DHT22;66074;50.764;6.090;2023-02-01T15:11:15;8.70;98.00
19803;DHT22;66074;50.764;6.090;2023-02-01T15:13:51;8.60;98.00
19803;DHT22;66074;50.764;6.090;2023-02-01T15:16:22;8.60;98.00
19803;DHT22;66074;50.764;6.090;2023-02-01T15:18:48;8.60;97.90
19803;DHT22;66074;50.764;6.090;2023-02-01T15:21:21;8.60;98.00
19803;DHT22;66074;50.764;6.090;2023-02-01T15:23:47;8.60;98.00
19803;DHT22;66074;50.764;6.090;2023-02-01T15:26:27;8.60;98.20
19803;DHT22;66074;50.764;6.090;2023-02-01T15:28:53;8.60;98.30
19803;DHT22;66074;50.764;6.090;2023-02-01T15:31:35;8.60;98.40
19803;DHT22;66074;50.764;6.090;2023-02-01T15:34:01;8.60;98.40
19803;DHT22;66074;50.764;6.090;2023-02-01T15:36:27;8.50;98.50
19803;DHT22;66074;50.764;6.090;2023-02-01T15:41:50;8.40;98.70
19803;DHT22;66074;50.764;6.090;2023-02-01T15:44:27;8.40;98.80
19803;DHT22;66074;50.764;6.090;2023-02-01T15:46:56;8.40;98.90
19803;DHT22;66074;50.764;6.090;2023-02-01T15:49:29;8.30;98.90
19803;DHT22;66074;50.764;6.090;2023-02-01T15:51:57;8.30;99.20
19803;DHT22;66074;50.764;6.090;2023-02-01T15:54:46;8.30;99.30
19803;DHT22;66074;50.764;6.090;2023-02-01T15:57:32;8.30;99.60
19803;DHT22;66074;50.764;6.090;2023-02-01T16:00:02;8.30;99.80
19803;DHT22;66074;50.764;6.090;2023-02-01T16:02:37;8.20;99.50
19803;DHT22;66074;50.764;6.090;2023-02-01T16:08:05;8.20;99.90
19803;DHT22;66074;50.764;6.090;2023-02-01T16:10:42;8.10;99.90
19803;DHT22;66074;50.764;6.090;2023-02-01T16:13:09;8.10;99.90
19803;DHT22;66074;50.764;6.090;2023-02-01T16:15:35;8.10;99.90
19803;DHT22;66074;50.764;6.090;2023-02-01T16:18:00;8.10;99.90
19803;DHT22;66074;50.764;6.090;2023-02-01T16:20:26;8.10;99.90
19803;DHT22;66074;50.764;6.090;2023-02-01T16:22:51;8.00;99.90
19803;DHT22;66074;50.764;6.090;2023-02-01T16:25:17;8.00;99.90
19803;DHT22;66074;50.764;6.090;2023-02-01T16:27:43;8.00;99.90
19803;DHT22;66074;50.764;6.090;2023-02-01T16:30:09;8.00;99.90
19803;DHT22;66074;50.764;6.090;2023-02-01T16:32:36;7.90;99.90
19803;DHT22;66074;50.764;6.090;2023-02-01T16:35:29;7.90;99.90
19803;DHT22;66074;50.764;6.090;2023-02-01T16:38:01;7.90;99.90
19803;DHT22;66074;50.764;6.090;2023-02-01T16:40:26;7.80;99.90
19803;DHT22;66074;50.764;6.090;2023-02-01T16:42:53;7.90;99.90
19803;DHT22;66074;50.764;6.090;2023-02-01T16:45:22;7.80;99.90
19803;DHT22;66074;50.764;6.090;2023-02-01T16:47:50;7.80;99.90
19803;DHT22;66074;50.764;6.090;2023-02-01T16:50:20;7.80;99.90
19803;DHT22;66074;50.764;6.090;2023-02-01T16:52:46;7.80;99.90
19803;DHT22;66074;50.764;6.090;2023-02-01T16:55:17;7.70;99.90
19803;DHT22;66074;50.764;6.090;2023-02-01T16:57:44;7.70;99.90
19803;DHT22;66074;50.764;6.090;2023-02-01T17:00:11;7.80;99.90
19803;DHT22;66074;50.764;6.090;2023-02-01T17:02:43;7.70;99.90
19803;DHT22;66074;50.764;6.090;2023-02-01T17:05:09;7.70;99.90
19803;DHT22;66074;50.764;6.090;2023-02-01T17:07:36;7.70;99.90
19803;DHT22;66074;50.764;6.090;2023-02-01T17:10:04;7.70;99.90
19803;DHT22;66074;50.764;6.090;2023-02-01T17:12:32;7.60;99.90
19803;DHT22;66074;50.764;6.090;2023-02-01T17:14:58;7.60;99.90
19803;DHT22;66074;50.764;6.090;2023-02-01T17:17:32;7.60;99.90
19803;DHT22;66074;50.764;6.090;2023-02-01T17:19:59;7.60;99.90
19803;DHT22;66074;50.764;6.090;2023-02-01T17:22:24;7.60;99.90
19803;DHT22;66074;50.764;6.090;2023-02-01T17:24:50;7.60;99.90
19803;DHT22;66074;50.764;6.090;2023-02-01T17:27:17;7.60;99.90
19803;DHT22;66074;50.764;6.090;2023-02-01T17:29:43;7.60;99.90
19803;DHT22;66074;50.764;6.090;2023-02-01T17:32:17;7.60;99.90
19803;DHT22;66074;50.764;6.090;2023-02-01T17:34:43;7.60;99.90
19803;DHT22;66074;50.764;6.090;2023-02-01T17:37:24;7.60;99.90
19803;DHT22;66074;50.764;6.090;2023-02-01T17:39:49;7.60;99.90
19803;DHT22;66074;50.764;6.090;2023-02-01T17:42:26;7.50;99.90
19803;DHT22;66074;50.764;6.090;2023-02-01T17:44:56;7.50;99.90
19803;DHT22;66074;50.764;6.090;2023-02-01T17:47:22;7.50;99.90
19803;DHT22;66074;50.764;6.090;2023-02-01T17:49:48;7.50;99.90
19803;DHT22;66074;50.764;6.090;2023-02-01T17:52:22;7.50;99.90
19803;DHT22;66074;50.764;6.090;2023-02-01T17:54:48;7.50;99.90
19803;DHT22;66074;50.764;6.090;2023-02-01T17:57:15;7.60;99.90
19803;DHT22;66074;50.764;6.090;2023-02-01T17:59:42;7.50;99.90
19803;DHT22;66074;50.764;6.090;2023-02-01T18:02:21;7.50;99.90
19803;DHT22;66074;50.764;6.090;2023-02-01T18:04:48;7.50;99.90
19803;DHT22;66074;50.764;6.090;2023-02-01T18:07:14;7.50;99.90
19803;DHT22;66074;50.764;6.090;2023-02-01T18:09:40;7.70;99.90
19803;DHT22;66074;50.764;6.090;2023-02-01T18:12:17;8.00;99.90
19803;DHT22;66074;50.764;6.090;2023-02-01T18:14:44;8.30;99.90
19803;DHT22;66074;50.764;6.090;2023-02-01T18:17:09;8.40;99.90
19803;DHT22;66074;50.764;6.090;2023-02-01T18:19:37;8.60;99.90
19803;DHT22;66074;50.764;6.090;2023-02-01T18:22:02;8.70;99.90
19803;DHT22;66074;50.764;6.090;2023-02-01T18:24:29;8.70;99.90
19803;DHT22;66074;50.764;6.090;2023-02-01T18:26:58;8.80;99.90
19803;DHT22;66074;50.764;6.090;2023-02-01T18:29:24;8.80;99.90
19803;DHT22;66074;50.764;6.090;2023-02-01T18:31:49;8.80;99.90
19803;DHT22;66074;50.764;6.090;2023-02-01T18:34:15;8.90;99.90
19803;DHT22;66074;50.764;6.090;2023-02-01T18:36:49;8.90;99.90
19803;DHT22;66074;50.764;6.090;2023-02-01T18:39:14;8.80;99.90
19803;DHT22;66074;50.764;6.090;2023-02-01T18:41:40;8.80;99.90
19803;DHT22;66074;50.764;6.090;2023-02-01T18:44:12;8.70;99.90
19803;DHT22;66074;50.764;6.090;2023-02-01T18:46:39;8.80;99.90
19803;DHT22;66074;50.764;6.090;2023-02-01T18:49:05;8.70;99.90